Terminal Aerodrome Forecast
Issued by NWS Topeka, KS

Home | Current Version | Previous Version | Graphics & Text | Print | Product List | Glossary On
Versions: 1 2 3 4 5 6 7 8 9 10 11 12 13
638
FTUS43 KTOP 201132
TAFTOP
TAF
KTOP 201132Z 2012/2112 17008KT P6SM VCSH OVC035
      TEMPO 2013/2016 OVC015
     FM201600 18011KT P6SM SCT070
     FM210000 23005KT P6SM SCT150
     FM210600 32006KT P6SM SKC=

USA.gov is the U.S. government's official web portal to all federal, state and local government web resources and services.